Pescuezo Venado, Mexico

7:54 AM CDT on April 24, 2017 (GMT -0500)
Xoxocotlan International | | Change Station

Elev 4987 ft 17.00 °N, 96.73 °W | Updated 1 hour ago

Clear
Clear
54 °F
Feels Like 54 °F
N
0
Wind Variable Wind from North

Today
High -- | Low -- °F
--% Chance of Precip.
Yesterday
High -- | Low -- °F
Precip. -- in
Pressure 29.94 in
Visibility 7.0 miles
Clouds Mostly Cloudy 22000 ft
Dew Point 50 °F
Humidity 88%
Rainfall 0.00 in
Snow Depth Not available.
7:08 AM 7:46 PM
Waning Crescent, 6% visible
METAR MMOX 241145Z 00000KT 7SM BKN220 12/10 A3020 RMK SLP136 5//// 912 8/008 HZY ISOL ST
Pressure 29.94 in
Visibility 7.0 miles
Clouds Mostly Cloudy 22000 ft
Dew Point 50 °F
Humidity 88%
Rainfall 0.00 in
Snow Depth Not available.
7:08 AM 7:46 PM
Waning Crescent, 6% visible
METAR MMOX 241145Z 00000KT 7SM BKN220 12/10 A3020 RMK SLP136 5//// 912 8/008 HZY ISOL ST

Get Severe Weather Alerts

Thanks for signing up!

Be on the lookout for a verification email in your inbox.

You'll start receiving the daily forecast at 8 AM.

×

10-Day Weather Forecast

No radar image for this location.
×

Almanac

Astronomy

Apr. 24, 2017 Rise Set
Actual Time
Civil Twilight
Nautical Twilight
Astronomical Twilight
Moon
Length of Visible Light
Length of Day
Tomorrow will be .
, % of the Moon is Illuminated

Today's Extremes

Country Highs Country Lows

Community

WunderPhotos

WunderBlog® & News

Nearby

Air Quality

  Air Quality AQ Index Pollutant
Not available.

Snow Depth

Station Depth Elevation

Earthquake Activity

City Distance Mag. Time & Date
Minimum magnitude displayed is 2.5.

Coastal Water Temperatures

Place Temperature

Stations

Nearby Weather Stations

Station Location Temp. Windchill Dew Point Humidity Wind Precip. Elev Updated Type